map of PSR home
PSR - Airport
Location
City:  Pescara, Abruzzo, Italy
Name:Abruzzo International Airport
ICAO:LIBP
IATA:PSR

Details
Type:Airport (Aerodrome, Airfield)
Use:Public/Civil, International (customs port of entry)
Latitude:4225'54"N (42.431656)
Longitude:1410'52"E (14.181067)
Datum:WGS 1984
Elevation:48 ft (15 m)
Variation:3.33E (WMM2015 magnetic declination)
0.11 annual change
Runways:1
Longest:7934 × 148 ft (2418 × 45 m), paved

Time
Time Zone:UTC+1 (DST+2)
Local Time:

Weather
METAR:LIBP 221250Z 06008KT 030V090 CAVOK 32/16 Q1017
TAF:LIBP 221100Z 2212/2312 07010KT CAVOK
BECMG 2216/2218 VRB05KT
BECMG 2310/2312 06010KT

Related Locations
Nearby:
Farthest:CHT: 11895 mi / 19143 km
Waitangi [Tuuta], CIT, NZ

Find:

   beyond  
but within

Other Information
Maps:
NOTAMs:
Links:
Sources:

  
flag of Italy
flag of Abruzzo
  

Sectional Chart

Flight Planning
at skyvector.com

Satellite Image

Google Maps Satellite view

 

Copyright © 2004-2017 Karl L. Swartz. All rights reserved.
The Great Circle Mapper name and logo are trademarks of the Great Circle Mapper.
All other trademarks mentioned herein belong to their respective owners.
Please see credits for attibutions and further copyright information.

  Follow gcmap on Facebook Follow gcmap on Twitter Follow gcmap on Google+ GCmap on LinkedIn

hCard Microformat

Geo Microformat